createdAt,value
2023-01-31T00:00:49.809Z,102146.50
2023-01-31T00:03:18.553Z,102149.09
2023-01-31T00:05:47.018Z,102156.88
2023-01-31T00:08:15.490Z,102151.69
2023-01-31T00:10:44.186Z,102149.09
2023-01-31T00:13:12.614Z,102142.84
2023-01-31T00:15:42.527Z,102150.50
2023-01-31T00:18:10.894Z,102144.41
2023-01-31T00:20:39.297Z,102153.00
2023-01-31T00:23:07.869Z,102152.72
2023-01-31T00:25:36.284Z,102163.91
2023-01-31T00:28:04.724Z,102158.63
2023-01-31T00:30:33.112Z,102152.41
2023-01-31T00:33:03.049Z,102142.03
2023-01-31T00:35:31.411Z,102144.63
2023-01-31T00:38:00.343Z,102146.25
2023-01-31T00:40:28.826Z,102142.78
2023-01-31T00:42:57.166Z,102133.28
2023-01-31T00:45:25.444Z,102127.97
2023-01-31T00:47:53.997Z,102133.16
2023-01-31T00:50:23.960Z,102140.84
2023-01-31T00:52:52.364Z,102138.34
2023-01-31T00:55:20.985Z,102133.84
2023-01-31T00:57:49.609Z,102143.31
2023-01-31T01:00:19.861Z,102145.81
2023-01-31T01:02:48.544Z,102151.88
2023-01-31T01:05:17.304Z,102151.78
2023-01-31T01:07:47.919Z,102145.72
2023-01-31T01:10:16.578Z,102137.88
2023-01-31T01:12:44.995Z,102136.84
2023-01-31T01:15:13.444Z,102142.91
2023-01-31T01:17:41.954Z,102147.94
2023-01-31T01:20:12.440Z,102145.19
2023-01-31T01:22:42.743Z,102143.31
2023-01-31T01:25:13.009Z,102135.63
2023-01-31T01:27:41.614Z,102136.47
2023-01-31T01:30:12.243Z,102151.94
2023-01-31T01:32:40.613Z,102153.66
2023-01-31T01:35:10.251Z,102155.50
2023-01-31T01:37:38.754Z,102152.81
2023-01-31T01:40:09.239Z,102153.66
2023-01-31T01:42:38.982Z,102153.69
2023-01-31T01:45:18.221Z,102143.41
2023-01-31T01:47:50.874Z,102143.41
2023-01-31T01:50:25.917Z,102146.00
2023-01-31T01:52:59.714Z,102137.41
2023-01-31T01:55:37.400Z,102128.81
2023-01-31T01:58:12.056Z,102139.19
2023-01-31T02:00:40.865Z,102143.41
2023-01-31T02:03:10.262Z,102138.13
2023-01-31T02:05:46.680Z,102127.75
2023-01-31T02:08:19.073Z,102133.03
2023-01-31T02:10:52.472Z,102125.25
2023-01-31T02:13:23.509Z,102113.25
2023-01-31T02:15:52.164Z,102115.03
2023-01-31T02:18:22.715Z,102108.53
2023-01-31T02:21:41.953Z,102108.84
2023-01-31T02:25:11.253Z,102103.91
2023-01-31T02:28:44.935Z,102110.25
2023-01-31T02:32:00.408Z,102100.97
2023-01-31T02:34:38.687Z,102105.56
2023-01-31T02:37:21.614Z,102100.59
2023-01-31T02:40:00.731Z,102085.97
2023-01-31T02:42:38.626Z,102093.91
2023-01-31T02:45:12.698Z,102091.53
2023-01-31T02:47:59.180Z,102091.69
2023-01-31T02:50:37.086Z,102084.94
2023-01-31T02:53:11.863Z,102089.38
2023-01-31T02:56:04.339Z,102072.22
2023-01-31T02:58:38.239Z,102080.91
2023-01-31T03:01:08.512Z,102081.06
2023-01-31T03:03:39.844Z,102087.28
2023-01-31T03:07:00.043Z,102075.09
2023-01-31T03:09:42.800Z,102088.03
2023-01-31T03:12:42.737Z,102091.50
2023-01-31T03:15:49.989Z,102076.72
2023-01-31T03:18:23.172Z,102073.34
2023-01-31T03:20:58.140Z,102064.72
2023-01-31T03:23:31.252Z,102069.16
2023-01-31T03:26:00.591Z,102053.66
2023-01-31T03:28:32.781Z,102053.75
2023-01-31T03:31:06.667Z,102050.31
2023-01-31T03:33:39.631Z,102041.72
2023-01-31T03:36:19.356Z,102044.53
2023-01-31T03:38:58.493Z,102034.19
2023-01-31T03:41:35.949Z,102027.44
2023-01-31T03:44:11.798Z,102016.28
2023-01-31T03:46:44.933Z,102018.97
2023-01-31T03:49:16.520Z,102020.72
2023-01-31T03:51:52.071Z,102016.41
2023-01-31T03:54:27.224Z,102018.03
2023-01-31T03:57:00.047Z,102006.72
2023-01-31T03:59:34.455Z,101998.03
2023-01-31T04:02:05.230Z,101999.88
2023-01-31T04:04:40.551Z,101999.94
2023-01-31T04:07:08.921Z,101994.91
2023-01-31T04:09:39.359Z,101999.34
2023-01-31T04:12:08.554Z,101992.56
2023-01-31T04:14:36.996Z,101991.00
2023-01-31T04:17:05.445Z,101992.81
2023-01-31T04:19:33.870Z,101994.66
2023-01-31T04:22:02.256Z,101989.66
2023-01-31T04:24:30.586Z,101993.22
2023-01-31T04:27:00.384Z,101990.75
2023-01-31T04:29:28.682Z,101987.41
2023-01-31T04:31:57.095Z,101978.97
2023-01-31T04:34:25.549Z,101973.97
2023-01-31T04:36:53.900Z,101971.44
2023-01-31T04:39:22.246Z,101972.44
2023-01-31T04:41:50.692Z,101969.06
2023-01-31T04:44:20.465Z,101952.78
2023-01-31T04:46:48.855Z,101946.91
2023-01-31T04:49:17.473Z,101952.19
2023-01-31T04:51:45.881Z,101949.75
2023-01-31T04:54:14.500Z,101953.31
2023-01-31T04:56:42.949Z,101956.91
2023-01-31T04:59:11.253Z,101952.72
2023-01-31T05:01:42.203Z,101942.44
2023-01-31T05:04:10.980Z,101941.66
2023-01-31T05:06:39.283Z,101934.81
2023-01-31T05:09:07.909Z,101933.16
2023-01-31T05:11:36.359Z,101931.44
2023-01-31T05:14:04.848Z,101925.44
2023-01-31T05:16:33.253Z,101924.69
2023-01-31T05:19:03.307Z,101939.53
2023-01-31T05:21:51.628Z,101933.38
2023-01-31T05:24:20.337Z,101933.38
2023-01-31T05:26:50.753Z,101933.44
2023-01-31T05:29:19.787Z,101932.56
2023-01-31T05:31:48.321Z,101921.31
2023-01-31T05:34:18.182Z,101923.03
2023-01-31T05:36:47.087Z,101915.31
2023-01-31T05:39:15.518Z,101905.78
2023-01-31T05:41:43.983Z,101906.66
2023-01-31T05:44:12.786Z,101904.13
2023-01-31T05:46:41.215Z,101908.56
2023-01-31T05:49:10.045Z,101907.78
2023-01-31T05:51:39.953Z,101894.84
2023-01-31T05:54:08.946Z,101889.75
2023-01-31T05:56:37.828Z,101892.47
2023-01-31T05:59:06.219Z,101875.19
2023-01-31T06:01:34.666Z,101867.53
2023-01-31T06:04:03.035Z,101861.53
2023-01-31T06:06:32.092Z,101859.91
2023-01-31T06:09:01.897Z,101855.66
2023-01-31T06:11:30.873Z,101868.81
2023-01-31T06:13:59.653Z,101871.50
2023-01-31T06:16:28.305Z,101856.00
2023-01-31T06:18:57.140Z,101851.03
2023-01-31T06:21:26.050Z,101845.16
2023-01-31T06:23:54.556Z,101839.28
2023-01-31T06:26:24.917Z,101846.44
2023-01-31T06:28:53.409Z,101844.91
2023-01-31T06:31:22.007Z,101839.03
2023-01-31T06:33:50.739Z,101840.97
2023-01-31T06:36:19.711Z,101834.22
2023-01-31T06:38:52.022Z,101838.69
2023-01-31T06:41:21.066Z,101826.59
2023-01-31T06:43:51.300Z,101823.22
2023-01-31T06:46:19.955Z,101815.44
2023-01-31T06:48:49.765Z,101812.97
2023-01-31T06:51:18.779Z,101824.25
2023-01-31T06:53:54.073Z,101814.72
2023-01-31T06:56:22.618Z,101800.88
2023-01-31T06:58:52.764Z,101810.50
2023-01-31T07:01:22.652Z,101817.56
2023-01-31T07:03:51.153Z,101794.16
2023-01-31T07:06:20.511Z,101788.97
2023-01-31T07:08:48.942Z,101774.28
2023-01-31T07:11:17.271Z,101766.44
2023-01-31T07:13:47.972Z,101765.63
2023-01-31T07:16:19.823Z,101762.97
2023-01-31T07:18:48.257Z,101775.16
2023-01-31T07:21:16.747Z,101776.97
2023-01-31T07:23:45.623Z,101772.69
2023-01-31T07:26:14.215Z,101777.09
2023-01-31T07:28:42.855Z,101773.75
2023-01-31T07:31:15.015Z,101775.50
2023-01-31T07:33:44.776Z,101772.97
2023-01-31T07:36:16.826Z,101767.81
2023-01-31T07:38:45.114Z,101775.69
2023-01-31T07:41:13.766Z,101755.72
2023-01-31T07:43:42.199Z,101756.66
2023-01-31T07:46:11.378Z,101764.53
2023-01-31T07:48:40.504Z,101757.59
2023-01-31T07:51:10.687Z,101754.19
2023-01-31T07:53:42.229Z,101749.13
2023-01-31T07:56:13.540Z,101736.16
2023-01-31T07:58:43.509Z,101728.34
2023-01-31T08:01:34.203Z,101727.47
2023-01-31T08:04:19.341Z,101730.09
2023-01-31T08:06:53.163Z,101722.31
2023-01-31T08:09:21.563Z,101731.88
2023-01-31T08:11:50.243Z,101738.91
2023-01-31T08:14:20.834Z,101730.22
2023-01-31T08:16:49.228Z,101728.53
2023-01-31T08:19:17.543Z,101713.84
2023-01-31T08:21:46.083Z,101714.72
2023-01-31T08:24:15.815Z,101711.28
2023-01-31T08:26:45.135Z,101713.09
2023-01-31T08:29:13.545Z,101705.28
2023-01-31T08:31:43.463Z,101727.94
2023-01-31T08:34:12.599Z,101727.06
2023-01-31T08:36:40.948Z,101719.25
2023-01-31T08:39:09.353Z,101720.16
2023-01-31T08:41:40.756Z,101718.53
2023-01-31T08:44:09.505Z,101718.56
2023-01-31T08:46:38.763Z,101703.88
2023-01-31T08:49:08.552Z,101709.09
2023-01-31T08:51:36.926Z,101724.00
2023-01-31T08:54:05.556Z,101697.97
2023-01-31T08:56:33.974Z,101693.69
2023-01-31T08:59:03.647Z,101704.16
2023-01-31T09:01:32.763Z,101700.72
2023-01-31T09:04:01.130Z,101703.38
2023-01-31T09:06:30.167Z,101710.28
2023-01-31T09:08:59.426Z,101692.03
2023-01-31T09:11:30.496Z,101683.44
2023-01-31T09:13:59.081Z,101672.22
2023-01-31T09:16:29.276Z,101672.34
2023-01-31T09:18:58.024Z,101658.53
2023-01-31T09:21:27.149Z,101673.44
2023-01-31T09:24:02.404Z,101674.44
2023-01-31T09:26:32.185Z,101677.06
2023-01-31T09:29:01.620Z,101668.41
2023-01-31T09:31:31.594Z,101669.28
2023-01-31T09:34:01.032Z,101656.28
2023-01-31T09:36:30.211Z,101644.97
2023-01-31T09:38:59.554Z,101641.44
2023-01-31T09:41:33.909Z,101638.72
2023-01-31T09:44:06.921Z,101630.72
2023-01-31T09:46:40.414Z,101626.31
2023-01-31T09:49:17.350Z,101634.25
2023-01-31T09:51:45.831Z,101623.06
2023-01-31T09:54:21.484Z,101621.44
2023-01-31T09:57:02.142Z,101616.22
2023-01-31T09:59:41.496Z,101631.81
2023-01-31T10:02:32.636Z,101608.22
2023-01-31T10:05:19.982Z,101622.13
2023-01-31T10:07:57.409Z,101616.13
2023-01-31T10:10:36.306Z,101616.28
2023-01-31T10:13:14.192Z,101619.00
2023-01-31T10:15:48.242Z,101615.63
2023-01-31T10:18:25.070Z,101615.69
2023-01-31T10:20:59.852Z,101616.69
2023-01-31T10:23:32.976Z,101622.84
2023-01-31T10:26:03.791Z,101629.84
2023-01-31T10:28:39.875Z,101626.47
2023-01-31T10:31:17.975Z,101632.63
2023-01-31T10:33:53.524Z,101628.31
2023-01-31T10:36:31.303Z,101652.69
2023-01-31T10:39:07.828Z,101630.81
2023-01-31T10:41:48.938Z,101623.66
2023-01-31T10:44:25.893Z,101634.84
2023-01-31T10:46:58.104Z,101638.19
2023-01-31T10:49:29.692Z,101628.56
2023-01-31T10:52:28.544Z,101637.22
2023-01-31T10:55:10.012Z,101631.88
2023-01-31T10:57:38.851Z,101626.59
2023-01-31T11:00:12.679Z,101629.16
2023-01-31T11:02:41.378Z,101617.03
2023-01-31T11:05:21.205Z,101603.94
2023-01-31T11:07:50.518Z,101635.22
2023-01-31T11:10:26.212Z,101602.31
2023-01-31T11:12:57.983Z,101591.97
2023-01-31T11:15:30.101Z,101595.41
2023-01-31T11:18:01.344Z,101584.84
2023-01-31T11:20:33.805Z,101580.50
2023-01-31T11:23:03.704Z,101579.69
2023-01-31T11:25:35.143Z,101595.34
2023-01-31T11:28:16.549Z,101574.47
2023-01-31T11:30:51.507Z,101591.91
2023-01-31T11:33:44.240Z,101579.75
2023-01-31T11:36:16.763Z,101581.44
2023-01-31T11:38:45.273Z,101586.75
2023-01-31T11:41:33.965Z,101594.56
2023-01-31T11:44:13.805Z,101604.97
2023-01-31T11:46:52.395Z,101589.25
2023-01-31T11:49:31.017Z,101591.03
2023-01-31T11:52:04.512Z,101591.06
2023-01-31T11:54:35.607Z,101589.38
2023-01-31T11:57:04.174Z,101591.19
2023-01-31T11:59:32.843Z,101580.78
2023-01-31T12:02:02.838Z,101571.31
2023-01-31T12:04:36.388Z,101577.47
2023-01-31T12:07:22.956Z,101568.94
2023-01-31T12:09:51.270Z,101566.44
2023-01-31T12:12:33.670Z,101574.38
2023-01-31T12:15:04.920Z,101573.69
2023-01-31T12:17:43.185Z,101574.66
2023-01-31T12:20:33.848Z,101544.25
2023-01-31T12:23:18.036Z,101546.03
2023-01-31T12:26:02.843Z,101538.22
2023-01-31T12:28:46.958Z,101553.06
2023-01-31T12:31:37.887Z,101536.63
2023-01-31T12:34:32.280Z,101525.41
2023-01-31T12:37:19.141Z,101518.50
2023-01-31T12:40:24.684Z,101526.31
2023-01-31T12:42:59.721Z,101521.94
2023-01-31T12:45:53.868Z,101517.72
2023-01-31T12:48:50.406Z,101502.97
2023-01-31T12:51:38.531Z,101494.22
2023-01-31T12:54:26.714Z,101494.41
2023-01-31T12:57:22.700Z,101502.41
2023-01-31T13:00:05.799Z,101504.44
2023-01-31T13:02:43.810Z,101485.31
2023-01-31T13:05:28.344Z,101481.78
2023-01-31T13:08:03.400Z,101493.19
2023-01-31T13:10:38.181Z,101481.00
2023-01-31T13:13:17.711Z,101478.34
2023-01-31T13:15:51.722Z,101474.94
2023-01-31T13:18:22.608Z,101478.47
2023-01-31T13:20:57.814Z,101506.44
2023-01-31T13:23:31.682Z,101486.38
2023-01-31T13:26:09.656Z,101496.81
2023-01-31T13:28:45.970Z,101503.06
2023-01-31T13:31:23.382Z,101488.41
2023-01-31T13:33:58.957Z,101505.19
2023-01-31T13:36:32.917Z,101498.31
2023-01-31T13:39:10.205Z,101510.59
2023-01-31T13:41:40.086Z,101511.41
2023-01-31T13:44:15.349Z,101526.75
2023-01-31T13:46:52.567Z,101533.38
2023-01-31T13:49:27.871Z,101541.84
2023-01-31T13:51:59.667Z,101529.56
2023-01-31T13:54:33.588Z,101531.22
2023-01-31T13:57:03.590Z,101539.00
2023-01-31T13:59:37.805Z,101529.38
2023-01-31T14:02:18.824Z,101529.38
2023-01-31T14:04:48.451Z,101534.69
2023-01-31T14:07:21.118Z,101550.47
2023-01-31T14:10:38.490Z,101531.47
2023-01-31T14:13:38.827Z,101538.72
2023-01-31T14:16:38.734Z,101536.34
2023-01-31T14:19:47.969Z,101549.63
2023-01-31T14:22:18.779Z,101557.66
2023-01-31T14:25:16.933Z,101538.56
2023-01-31T14:28:00.984Z,101535.19
2023-01-31T14:30:43.745Z,101545.56
2023-01-31T14:33:24.684Z,101524.75
2023-01-31T14:36:35.615Z,101545.69
2023-01-31T14:39:54.356Z,101550.09
2023-01-31T14:43:14.338Z,101537.88
2023-01-31T14:46:08.331Z,101553.63
2023-01-31T14:49:22.710Z,101552.66
2023-01-31T14:52:21.954Z,101570.31
2023-01-31T14:55:23.632Z,101573.22
2023-01-31T14:57:56.118Z,101576.34
2023-01-31T15:00:28.452Z,101584.75
2023-01-31T15:03:06.080Z,101575.00
2023-01-31T15:05:46.259Z,101576.66
2023-01-31T15:08:39.295Z,101586.13
2023-01-31T15:11:41.329Z,101594.75
2023-01-31T15:14:35.185Z,101585.00
2023-01-31T15:17:31.621Z,101598.06
2023-01-31T15:20:14.779Z,101590.09
2023-01-31T15:22:46.718Z,101607.44
2023-01-31T15:25:28.573Z,101595.25
2023-01-31T15:27:58.395Z,101584.69
2023-01-31T15:30:29.069Z,101594.00
2023-01-31T15:33:03.137Z,101588.66
2023-01-31T15:35:35.711Z,101595.47
2023-01-31T15:38:16.033Z,101593.59
2023-01-31T15:40:44.339Z,101604.00
2023-01-31T15:43:22.997Z,101597.94
2023-01-31T15:45:52.792Z,101594.47
2023-01-31T15:48:23.164Z,101600.69
2023-01-31T15:50:55.058Z,101614.75
2023-01-31T15:53:27.804Z,101590.63
2023-01-31T15:56:02.576Z,101611.75
2023-01-31T15:58:32.459Z,101613.72
2023-01-31T16:01:03.758Z,101608.56
2023-01-31T16:03:36.380Z,101606.78
2023-01-31T16:06:05.102Z,101618.03
2023-01-31T16:08:37.763Z,101616.19
2023-01-31T16:11:09.645Z,101610.16
2023-01-31T16:13:40.054Z,101621.34
2023-01-31T16:16:14.001Z,101607.31
2023-01-31T16:18:46.676Z,101613.25
2023-01-31T16:21:25.434Z,101630.47
2023-01-31T16:24:14.056Z,101630.25
2023-01-31T16:26:57.237Z,101647.53
2023-01-31T16:29:34.912Z,101616.03
2023-01-31T16:32:03.458Z,101627.25
2023-01-31T16:34:36.213Z,101641.91
2023-01-31T16:37:06.681Z,101626.94
2023-01-31T16:39:39.883Z,101645.88
2023-01-31T16:42:10.554Z,101636.19
2023-01-31T16:44:43.520Z,101647.38
2023-01-31T16:47:35.190Z,101653.25
2023-01-31T16:50:42.952Z,101649.53
2023-01-31T16:53:34.188Z,101656.34
2023-01-31T16:56:23.820Z,101665.72
2023-01-31T16:58:55.837Z,101663.78
2023-01-31T17:01:28.288Z,101674.19
2023-01-31T17:04:07.717Z,101671.44
2023-01-31T17:06:37.274Z,101665.31
2023-01-31T17:09:07.921Z,101666.13
2023-01-31T17:11:43.035Z,101667.84
2023-01-31T17:14:11.719Z,101667.84
2023-01-31T17:16:40.900Z,101675.59
2023-01-31T17:19:09.273Z,101679.97
2023-01-31T17:21:42.916Z,101677.34
2023-01-31T17:24:15.415Z,101689.50
2023-01-31T17:26:45.501Z,101673.72
2023-01-31T17:29:14.152Z,101678.94
2023-01-31T17:31:42.593Z,101684.16
2023-01-31T17:34:15.120Z,101691.91
2023-01-31T17:36:44.175Z,101679.75
2023-01-31T17:39:12.553Z,101687.56
2023-01-31T17:41:41.791Z,101671.03
2023-01-31T17:44:15.779Z,101656.22
2023-01-31T17:46:44.859Z,101669.13
2023-01-31T17:49:13.419Z,101664.75
2023-01-31T17:51:42.023Z,101679.47
2023-01-31T17:54:10.816Z,101659.41
2023-01-31T17:56:39.457Z,101668.84
2023-01-31T17:59:18.321Z,101663.53
2023-01-31T18:01:55.298Z,101669.56
2023-01-31T18:04:23.880Z,101666.03
2023-01-31T18:06:52.423Z,101666.00
2023-01-31T18:09:21.026Z,101671.06
2023-01-31T18:11:49.669Z,101663.25
2023-01-31T18:14:18.340Z,101661.47
2023-01-31T18:16:46.837Z,101653.63
2023-01-31T18:19:16.706Z,101661.34
2023-01-31T18:21:54.334Z,101670.94
2023-01-31T18:24:23.457Z,101665.66
2023-01-31T18:26:52.442Z,101657.78
2023-01-31T18:29:21.377Z,101666.47
2023-01-31T18:31:50.532Z,101671.53
2023-01-31T18:34:20.341Z,101673.03
2023-01-31T18:36:48.859Z,101680.69
2023-01-31T18:39:17.231Z,101672.91
2023-01-31T18:41:45.869Z,101676.31
2023-01-31T18:44:14.206Z,101678.91
2023-01-31T18:46:42.930Z,101676.28
2023-01-31T18:49:11.455Z,101683.16
2023-01-31T18:51:42.004Z,101683.19
2023-01-31T18:54:10.879Z,101677.09
2023-01-31T18:56:39.205Z,101691.84
2023-01-31T18:59:07.588Z,101677.00
2023-01-31T19:01:36.107Z,101681.34
2023-01-31T19:04:04.658Z,101684.88
2023-01-31T19:06:36.664Z,101694.50
2023-01-31T19:09:09.159Z,101682.28
2023-01-31T19:11:37.957Z,101678.75
2023-01-31T19:14:07.859Z,101665.81
2023-01-31T19:16:40.474Z,101669.28
2023-01-31T19:19:09.848Z,101670.22
2023-01-31T19:21:39.360Z,101690.25
2023-01-31T19:24:14.668Z,101682.50
2023-01-31T19:26:43.866Z,101686.00
2023-01-31T19:29:15.884Z,101687.78
2023-01-31T19:31:45.626Z,101687.88
2023-01-31T19:34:14.137Z,101688.69
2023-01-31T19:36:44.838Z,101699.94
2023-01-31T19:39:15.718Z,101693.00
2023-01-31T19:41:44.100Z,101680.84
2023-01-31T19:44:12.430Z,101677.41
2023-01-31T19:46:40.898Z,101686.16
2023-01-31T19:49:09.256Z,101673.13
2023-01-31T19:51:38.032Z,101675.66
2023-01-31T19:54:06.960Z,101676.47
2023-01-31T19:56:38.296Z,101679.84
2023-01-31T19:59:06.991Z,101679.75
2023-01-31T20:01:35.742Z,101689.31
2023-01-31T20:04:04.199Z,101683.19
2023-01-31T20:06:36.738Z,101681.44
2023-01-31T20:09:07.403Z,101682.28
2023-01-31T20:11:37.214Z,101685.69
2023-01-31T20:14:06.726Z,101681.28
2023-01-31T20:16:35.657Z,101686.44
2023-01-31T20:19:06.634Z,101695.91
2023-01-31T20:21:35.365Z,101714.97
2023-01-31T20:24:04.036Z,101689.88
2023-01-31T20:26:32.760Z,101696.81
2023-01-31T20:29:02.693Z,101693.28
2023-01-31T20:31:31.095Z,101692.41
2023-01-31T20:33:59.391Z,101680.19
2023-01-31T20:36:27.940Z,101686.34
2023-01-31T20:38:56.285Z,101673.31
2023-01-31T20:41:24.613Z,101682.84
2023-01-31T20:43:54.198Z,101675.13
2023-01-31T20:46:24.033Z,101676.91
2023-01-31T20:48:52.921Z,101664.06
2023-01-31T20:51:21.439Z,101671.03
2023-01-31T20:53:49.731Z,101676.16
2023-01-31T20:56:18.066Z,101664.09
2023-01-31T20:58:46.398Z,101677.16
2023-01-31T21:01:14.882Z,101672.03
2023-01-31T21:03:45.887Z,101675.59
2023-01-31T21:06:15.061Z,101681.72
2023-01-31T21:08:44.255Z,101680.84
2023-01-31T21:11:16.297Z,101671.31
2023-01-31T21:13:44.990Z,101674.78
2023-01-31T21:16:15.658Z,101676.44
2023-01-31T21:18:45.996Z,101666.84
2023-01-31T21:21:23.049Z,101662.50
2023-01-31T21:23:53.217Z,101708.50
2023-01-31T21:26:24.974Z,101666.84
2023-01-31T21:28:54.857Z,101659.03
2023-01-31T21:31:23.567Z,101661.69
2023-01-31T21:33:54.162Z,101661.69
2023-01-31T21:36:25.145Z,101666.91
2023-01-31T21:38:54.411Z,101665.16
2023-01-31T21:41:40.682Z,101666.91
2023-01-31T21:44:09.129Z,101664.22
2023-01-31T21:46:37.684Z,101655.53
2023-01-31T21:49:16.758Z,101666.91
2023-01-31T21:51:45.193Z,101660.91
2023-01-31T21:54:13.689Z,101653.19
2023-01-31T21:56:42.038Z,101665.44
2023-01-31T21:59:12.020Z,101649.03
2023-01-31T22:01:40.687Z,101643.03
2023-01-31T22:04:10.428Z,101642.22
2023-01-31T22:06:41.076Z,101658.72
2023-01-31T22:09:13.093Z,101656.13
2023-01-31T22:11:42.259Z,101656.13
2023-01-31T22:14:13.575Z,101654.50
2023-01-31T22:16:42.805Z,101646.69
2023-01-31T22:19:15.457Z,101663.25
2023-01-31T22:21:44.195Z,101666.81
2023-01-31T22:24:12.922Z,101659.88
2023-01-31T22:26:43.932Z,101656.41
2023-01-31T22:29:16.365Z,101661.69
2023-01-31T22:31:45.803Z,101655.59
2023-01-31T22:34:17.204Z,101654.75
2023-01-31T22:36:45.542Z,101653.91
2023-01-31T22:39:16.096Z,101644.38
2023-01-31T22:41:45.218Z,101654.81
2023-01-31T22:44:13.729Z,101646.19
2023-01-31T22:46:42.244Z,101639.25
2023-01-31T22:49:10.717Z,101635.81
2023-01-31T22:51:40.499Z,101632.44
2023-01-31T22:54:09.643Z,101633.34
2023-01-31T22:56:38.140Z,101625.56
2023-01-31T22:59:08.333Z,101634.31
2023-01-31T23:01:40.181Z,101636.09
2023-01-31T23:04:11.503Z,101621.34
2023-01-31T23:06:41.404Z,101619.56
2023-01-31T23:09:09.719Z,101623.91
2023-01-31T23:11:38.324Z,101626.50
2023-01-31T23:14:06.819Z,101611.72
2023-01-31T23:16:52.728Z,101603.91
2023-01-31T23:19:21.124Z,101606.50
2023-01-31T23:21:50.926Z,101614.34
2023-01-31T23:24:19.792Z,101624.75
2023-01-31T23:26:48.298Z,101606.50
2023-01-31T23:29:16.713Z,101624.78
2023-01-31T23:31:46.169Z,101624.78
2023-01-31T23:34:14.665Z,101606.59
2023-01-31T23:36:43.109Z,101617.88
2023-01-31T23:39:13.095Z,101611.91
2023-01-31T23:41:41.517Z,101613.66
2023-01-31T23:44:10.162Z,101604.13
2023-01-31T23:46:38.529Z,101602.44
2023-01-31T23:49:07.182Z,101584.16
2023-01-31T23:51:36.152Z,101589.41
2023-01-31T23:54:04.745Z,101580.81
2023-01-31T23:56:34.538Z,101580.81
2023-01-31T23:59:03.797Z,101579.13
